createdAt,value
2018-07-12T00:01:51.712Z,18.00
2018-07-12T00:04:18.993Z,18.00
2018-07-12T00:06:46.188Z,18.10
2018-07-12T00:09:13.451Z,18.10
2018-07-12T00:11:40.691Z,18.10
2018-07-12T00:14:07.990Z,18.10
2018-07-12T00:16:35.417Z,18.20
2018-07-12T00:19:02.660Z,18.20
2018-07-12T00:21:29.905Z,18.10
2018-07-12T00:23:57.101Z,18.20
2018-07-12T00:26:24.354Z,18.10
2018-07-12T00:28:51.663Z,18.10
2018-07-12T00:31:18.883Z,18.10
2018-07-12T00:33:46.174Z,18.10
2018-07-12T00:36:13.441Z,18.20
2018-07-12T00:41:08.233Z,18.20
2018-07-12T00:43:35.465Z,18.20
2018-07-12T00:46:02.681Z,18.20
2018-07-12T00:48:29.979Z,18.20
2018-07-12T00:50:57.546Z,18.20
2018-07-12T00:53:24.818Z,18.10
2018-07-12T00:55:52.128Z,18.10
2018-07-12T00:58:19.391Z,18.10
2018-07-12T01:00:46.662Z,18.10
2018-07-12T01:03:13.909Z,18.10
2018-07-12T01:05:41.175Z,18.10
2018-07-12T01:08:08.393Z,18.10
2018-07-12T01:10:35.667Z,18.10
2018-07-12T01:13:02.927Z,18.00
2018-07-12T01:15:30.339Z,18.00
2018-07-12T01:17:57.583Z,18.00
2018-07-12T01:20:24.832Z,18.00
2018-07-12T01:22:52.055Z,17.90
2018-07-12T01:25:19.327Z,17.90
2018-07-12T01:27:46.552Z,17.90
2018-07-12T01:30:13.794Z,17.90
2018-07-12T01:32:41.073Z,17.90
2018-07-12T01:35:09.331Z,17.90
2018-07-12T01:37:36.587Z,17.90
2018-07-12T01:40:03.819Z,17.90
2018-07-12T01:42:31.094Z,17.90
2018-07-12T01:44:59.432Z,17.90
2018-07-12T01:47:26.666Z,17.80
2018-07-12T01:49:53.892Z,17.80
2018-07-12T01:52:21.430Z,17.80
2018-07-12T01:54:48.761Z,17.80
2018-07-12T01:57:16.084Z,17.80
2018-07-12T01:59:43.307Z,17.80
2018-07-12T02:02:10.582Z,17.80
2018-07-12T02:04:37.852Z,17.80
2018-07-12T02:07:05.150Z,17.80
2018-07-12T02:09:32.390Z,17.80
2018-07-12T02:11:59.689Z,17.70
2018-07-12T02:14:27.060Z,17.70
2018-07-12T02:16:54.367Z,17.80
2018-07-12T02:19:21.558Z,17.70
2018-07-12T02:21:48.797Z,17.60
2018-07-12T02:24:16.103Z,17.50
2018-07-12T02:26:43.484Z,17.50
2018-07-12T02:29:10.727Z,17.40
2018-07-12T02:31:38.071Z,17.40
2018-07-12T02:34:05.288Z,17.40
2018-07-12T02:36:32.609Z,17.50
2018-07-12T02:38:59.839Z,17.50
2018-07-12T02:41:27.105Z,17.50
2018-07-12T02:43:54.398Z,17.50
2018-07-12T02:46:22.021Z,17.50
2018-07-12T02:48:49.239Z,17.50
2018-07-12T02:51:16.511Z,17.40
2018-07-12T02:53:43.721Z,17.40
2018-07-12T02:56:11.182Z,17.30
2018-07-12T02:58:38.417Z,17.30
2018-07-12T03:01:05.737Z,17.20
2018-07-12T03:03:32.996Z,17.20
2018-07-12T03:06:00.268Z,17.20
2018-07-12T03:08:27.515Z,17.30
2018-07-12T03:10:54.789Z,17.20
2018-07-12T03:13:22.049Z,17.20
2018-07-12T03:15:49.316Z,17.20
2018-07-12T03:18:16.551Z,17.20
2018-07-12T03:20:43.807Z,17.20
2018-07-12T03:23:11.036Z,17.30
2018-07-12T03:25:38.277Z,17.20
2018-07-12T03:28:05.475Z,17.20
2018-07-12T03:30:32.796Z,17.10
2018-07-12T03:33:00.002Z,17.10
2018-07-12T03:35:27.562Z,17.20
2018-07-12T03:37:54.805Z,17.20
2018-07-12T03:40:23.118Z,17.30
2018-07-12T03:42:50.319Z,17.30
2018-07-12T03:45:17.572Z,17.30
2018-07-12T03:47:44.837Z,17.30
2018-07-12T03:50:12.068Z,17.20
2018-07-12T03:52:39.279Z,17.20
2018-07-12T03:55:06.576Z,17.20
2018-07-12T03:57:33.783Z,17.20
2018-07-12T04:02:28.541Z,17.20
2018-07-12T04:05:02.861Z,17.20
2018-07-12T04:07:30.063Z,17.30
2018-07-12T04:09:57.273Z,17.30
2018-07-12T04:12:24.539Z,17.20
2018-07-12T04:14:51.760Z,17.20
2018-07-12T04:17:23.964Z,17.30
2018-07-12T04:19:51.202Z,17.30
2018-07-12T04:22:18.440Z,17.30
2018-07-12T04:24:45.660Z,17.40
2018-07-12T04:27:13.004Z,17.40
2018-07-12T04:29:40.210Z,17.40
2018-07-12T04:32:07.449Z,17.40
2018-07-12T04:34:34.761Z,17.40
2018-07-12T04:37:01.932Z,17.40
2018-07-12T04:39:29.179Z,17.40
2018-07-12T04:41:56.454Z,17.50
2018-07-12T04:44:25.489Z,17.50
2018-07-12T04:49:21.157Z,17.50
2018-07-12T04:51:48.559Z,17.50
2018-07-12T04:54:15.778Z,17.60
2018-07-12T04:56:43.019Z,17.60
2018-07-12T04:59:10.267Z,17.60
2018-07-12T05:01:37.476Z,17.60
2018-07-12T05:06:32.386Z,17.60
2018-07-12T05:08:59.604Z,17.50
2018-07-12T05:11:26.840Z,17.50
2018-07-12T05:13:54.568Z,17.50
2018-07-12T05:16:22.545Z,17.50
2018-07-12T05:18:49.820Z,17.50
2018-07-12T05:21:17.295Z,17.50
2018-07-12T05:23:44.524Z,17.50
2018-07-12T05:26:11.771Z,17.50
2018-07-12T05:28:38.996Z,17.50
2018-07-12T05:31:06.439Z,17.40
2018-07-12T05:33:33.628Z,17.40
2018-07-12T05:36:08.178Z,17.40
2018-07-12T05:38:36.433Z,17.40
2018-07-12T05:41:04.699Z,17.30
2018-07-12T05:43:33.045Z,17.40
2018-07-12T05:46:01.414Z,17.40
2018-07-12T05:48:29.687Z,17.30
2018-07-12T05:50:57.895Z,17.30
2018-07-12T05:53:26.140Z,17.30
2018-07-12T05:55:54.589Z,17.30
2018-07-12T05:58:22.825Z,17.30
2018-07-12T06:00:51.081Z,17.30
2018-07-12T06:03:19.340Z,17.30
2018-07-12T06:05:47.643Z,17.30
2018-07-12T06:08:15.870Z,17.40
2018-07-12T06:10:44.136Z,17.40
2018-07-12T06:13:12.410Z,17.50
2018-07-12T06:15:40.750Z,17.50
2018-07-12T06:18:08.932Z,17.50
2018-07-12T06:20:37.229Z,17.50
2018-07-12T06:23:05.487Z,17.40
2018-07-12T06:25:33.795Z,17.40
2018-07-12T06:28:02.052Z,17.40
2018-07-12T06:30:30.320Z,17.50
2018-07-12T06:32:58.542Z,17.50
2018-07-12T06:37:54.774Z,17.60
2018-07-12T06:40:22.992Z,17.50
2018-07-12T06:42:51.236Z,17.40
2018-07-12T06:45:19.444Z,17.40
2018-07-12T06:47:47.621Z,17.50
2018-07-12T06:50:15.894Z,17.60
2018-07-12T06:52:44.165Z,17.60
2018-07-12T06:57:40.315Z,17.70
2018-07-12T07:00:08.546Z,17.60
2018-07-12T07:02:36.831Z,17.50
2018-07-12T07:05:05.180Z,17.50
2018-07-12T07:07:33.454Z,17.60
2018-07-12T07:10:01.642Z,17.60
2018-07-12T07:12:29.840Z,17.70
2018-07-12T07:14:58.284Z,17.80
2018-07-12T07:17:26.571Z,17.80
2018-07-12T07:19:54.821Z,17.90
2018-07-12T07:22:23.157Z,18.00
2018-07-12T07:24:51.566Z,18.00
2018-07-12T07:27:19.831Z,18.10
2018-07-12T07:29:48.086Z,18.10
2018-07-12T07:32:16.275Z,18.10
2018-07-12T07:34:44.621Z,18.00
2018-07-12T07:37:12.831Z,18.00
2018-07-12T07:39:41.090Z,18.00
2018-07-12T07:42:09.328Z,18.10
2018-07-12T07:44:37.559Z,18.20
2018-07-12T07:47:05.766Z,18.20
2018-07-12T07:49:33.945Z,18.20
2018-07-12T07:52:02.218Z,18.10
2018-07-12T07:54:30.440Z,18.10
2018-07-12T07:56:58.721Z,18.10
2018-07-12T07:59:26.970Z,18.10
2018-07-12T08:01:55.212Z,18.20
2018-07-12T08:04:23.558Z,18.20
2018-07-12T08:06:51.751Z,18.20
2018-07-12T08:09:20.061Z,18.30
2018-07-12T08:11:48.317Z,18.40
2018-07-12T08:14:16.536Z,18.40
2018-07-12T08:16:44.755Z,18.30
2018-07-12T08:19:12.996Z,18.50
2018-07-12T08:21:41.210Z,18.40
2018-07-12T08:24:09.506Z,18.30
2018-07-12T08:26:38.453Z,18.30
2018-07-12T08:29:06.662Z,18.40
2018-07-12T08:31:34.940Z,18.60
2018-07-12T08:34:03.208Z,18.60
2018-07-12T08:36:31.422Z,18.70
2018-07-12T08:38:59.642Z,18.70
2018-07-12T08:41:27.878Z,18.80
2018-07-12T08:43:56.152Z,18.60
2018-07-12T08:46:24.386Z,18.70
2018-07-12T08:48:52.678Z,18.90
2018-07-12T08:51:20.887Z,18.90
2018-07-12T08:53:49.095Z,18.80
2018-07-12T08:56:17.324Z,18.90
2018-07-12T08:58:45.567Z,18.90
2018-07-12T09:01:13.774Z,19.00
2018-07-12T09:03:42.002Z,19.00
2018-07-12T09:06:10.352Z,19.10
2018-07-12T09:08:38.556Z,19.10
2018-07-12T09:11:07.043Z,19.30
2018-07-12T09:13:35.252Z,19.40
2018-07-12T09:16:03.559Z,19.50
2018-07-12T09:18:31.805Z,19.60
2018-07-12T09:21:00.038Z,19.50
2018-07-12T09:23:28.288Z,19.50
2018-07-12T09:28:24.602Z,19.40
2018-07-12T09:30:52.824Z,19.50
2018-07-12T09:33:21.076Z,19.50
2018-07-12T09:35:50.426Z,19.50
2018-07-12T09:38:30.090Z,19.60
2018-07-12T09:40:58.358Z,19.50
2018-07-12T09:43:26.600Z,19.50
2018-07-12T09:45:54.927Z,19.50
2018-07-12T09:48:23.109Z,19.50
2018-07-12T09:50:51.349Z,19.70
2018-07-12T09:53:19.542Z,19.70
2018-07-12T09:55:47.856Z,19.80
2018-07-12T09:58:24.890Z,19.90
2018-07-12T10:00:58.436Z,19.80
2018-07-12T10:03:57.277Z,19.80
2018-07-12T10:06:30.806Z,19.80
2018-07-12T10:09:04.327Z,19.70
2018-07-12T10:11:38.010Z,19.70
2018-07-12T10:14:11.711Z,19.50
2018-07-12T10:16:45.305Z,19.50
2018-07-12T10:19:13.656Z,19.40
2018-07-12T10:21:41.988Z,19.40
2018-07-12T10:24:10.160Z,19.60
2018-07-12T10:26:38.443Z,19.70
2018-07-12T10:29:06.660Z,19.70
2018-07-12T10:31:34.949Z,19.80
2018-07-12T10:34:03.142Z,19.80
2018-07-12T10:36:31.415Z,19.70
2018-07-12T10:38:59.667Z,19.70
2018-07-12T10:41:27.859Z,19.70
2018-07-12T10:43:56.033Z,19.60
2018-07-12T10:46:24.228Z,19.60
2018-07-12T10:48:52.472Z,19.70
2018-07-12T10:51:20.712Z,19.70
2018-07-12T10:53:48.967Z,19.70
2018-07-12T10:56:17.284Z,19.80
2018-07-12T10:58:45.619Z,19.80
2018-07-12T11:01:13.882Z,19.80
2018-07-12T11:03:42.116Z,19.80
2018-07-12T11:06:10.515Z,19.70
2018-07-12T11:08:38.745Z,19.50
2018-07-12T11:11:06.964Z,19.50
2018-07-12T11:13:53.112Z,19.60
2018-07-12T11:16:21.548Z,19.60
2018-07-12T11:18:49.940Z,19.70
2018-07-12T11:21:18.273Z,19.70
2018-07-12T11:23:46.391Z,19.70
2018-07-12T11:26:14.909Z,19.60
2018-07-12T11:28:43.446Z,19.70
2018-07-12T11:31:11.636Z,19.60
2018-07-12T11:33:43.084Z,19.70
2018-07-12T11:36:11.696Z,19.80
2018-07-12T11:38:41.128Z,19.70
2018-07-12T11:41:09.785Z,19.80
2018-07-12T11:43:38.083Z,20.00
2018-07-12T11:46:07.644Z,20.20
2018-07-12T11:48:37.046Z,20.00
2018-07-12T11:51:05.212Z,20.00
2018-07-12T11:53:33.458Z,19.90
2018-07-12T11:56:01.695Z,19.90
2018-07-12T11:58:29.905Z,20.10
2018-07-12T12:03:27.373Z,20.30
2018-07-12T12:05:55.621Z,20.30
2018-07-12T12:08:27.436Z,20.40
2018-07-12T12:10:55.744Z,20.30
2018-07-12T12:13:23.906Z,20.20
2018-07-12T12:15:52.215Z,20.20
2018-07-12T12:18:20.494Z,20.20
2018-07-12T12:20:48.752Z,20.20
2018-07-12T12:23:17.045Z,20.30
2018-07-12T12:25:45.344Z,20.50
2018-07-12T12:28:13.632Z,20.40
2018-07-12T12:30:41.868Z,20.30
2018-07-12T12:33:10.102Z,20.30
2018-07-12T12:35:38.420Z,20.40
2018-07-12T12:38:06.653Z,20.30
2018-07-12T12:40:41.503Z,20.30
2018-07-12T12:43:09.698Z,20.40
2018-07-12T12:45:37.974Z,20.50
2018-07-12T12:48:06.198Z,20.50
2018-07-12T12:50:34.402Z,20.50
2018-07-12T12:53:02.670Z,20.50
2018-07-12T12:55:30.945Z,20.50
2018-07-12T12:57:59.190Z,20.50
2018-07-12T13:00:27.422Z,20.60
2018-07-12T13:02:55.640Z,20.70
2018-07-12T13:05:23.869Z,20.60
2018-07-12T13:07:52.092Z,20.60
2018-07-12T13:10:20.347Z,20.70
2018-07-12T13:12:48.606Z,20.80
2018-07-12T13:15:17.046Z,20.80
2018-07-12T13:17:45.258Z,20.70
2018-07-12T13:20:13.477Z,20.70
2018-07-12T13:22:41.666Z,20.90
2018-07-12T13:25:10.135Z,20.90
2018-07-12T13:27:38.584Z,20.80
2018-07-12T13:30:06.810Z,20.70
2018-07-12T13:32:35.068Z,20.70
2018-07-12T13:35:03.419Z,20.80
2018-07-12T13:37:31.613Z,20.80
2018-07-12T13:39:59.848Z,20.80
2018-07-12T13:42:28.032Z,20.90
2018-07-12T13:44:56.457Z,20.90
2018-07-12T13:47:24.670Z,20.80
2018-07-12T13:49:52.885Z,20.80
2018-07-12T13:52:21.087Z,20.80
2018-07-12T13:54:49.387Z,20.70
2018-07-12T13:57:17.660Z,20.80
2018-07-12T13:59:45.938Z,20.80
2018-07-12T14:02:14.169Z,20.80
2018-07-12T14:04:43.525Z,20.90
2018-07-12T14:07:11.726Z,20.90
2018-07-12T14:09:39.994Z,20.70
2018-07-12T14:12:08.156Z,20.80
2018-07-12T14:14:36.623Z,20.70
2018-07-12T14:17:05.009Z,20.90
2018-07-12T14:19:33.214Z,21.10
2018-07-12T14:22:01.474Z,21.10
2018-07-12T14:24:30.114Z,21.10
2018-07-12T14:26:58.539Z,21.00
2018-07-12T14:29:26.954Z,20.90
2018-07-12T14:31:55.328Z,20.80
2018-07-12T14:34:23.693Z,20.90
2018-07-12T14:36:52.071Z,21.10
2018-07-12T14:39:20.376Z,21.10
2018-07-12T14:41:48.903Z,21.10
2018-07-12T14:44:17.556Z,21.00
2018-07-12T14:46:45.946Z,21.00
2018-07-12T14:49:14.385Z,21.00
2018-07-12T14:51:42.662Z,21.10
2018-07-12T14:54:11.057Z,21.20
2018-07-12T14:56:39.397Z,21.40
2018-07-12T14:59:07.704Z,21.50
2018-07-12T15:01:35.960Z,21.30
2018-07-12T15:04:04.316Z,21.20
2018-07-12T15:06:32.605Z,21.10
2018-07-12T15:09:01.056Z,21.00
2018-07-12T15:11:29.388Z,21.00
2018-07-12T15:13:57.820Z,21.00
2018-07-12T15:16:26.207Z,20.90
2018-07-12T15:18:54.448Z,20.90
2018-07-12T15:21:22.817Z,20.90
2018-07-12T15:23:51.145Z,20.90
2018-07-12T15:26:19.384Z,20.90
2018-07-12T15:28:47.803Z,20.90
2018-07-12T15:31:16.104Z,21.00
2018-07-12T15:33:44.344Z,21.00
2018-07-12T15:36:12.753Z,21.00
2018-07-12T15:38:40.995Z,21.00
2018-07-12T15:41:09.376Z,21.00
2018-07-12T15:43:37.605Z,21.10
2018-07-12T15:46:06.131Z,21.10
2018-07-12T15:48:34.351Z,21.00
2018-07-12T15:51:02.588Z,21.00
2018-07-12T15:53:30.796Z,20.90
2018-07-12T15:55:59.292Z,21.00
2018-07-12T15:58:27.528Z,21.00
2018-07-12T16:00:55.752Z,21.00
2018-07-12T16:03:23.963Z,20.90
2018-07-12T16:05:52.388Z,20.90
2018-07-12T16:08:20.537Z,21.00
2018-07-12T16:10:48.745Z,21.10
2018-07-12T16:15:44.900Z,20.90
2018-07-12T16:18:13.123Z,20.90
2018-07-12T16:20:41.440Z,20.90
2018-07-12T16:23:09.634Z,20.90
2018-07-12T16:25:39.834Z,20.90
2018-07-12T16:28:08.011Z,20.90
2018-07-12T16:30:36.263Z,20.90
2018-07-12T16:33:04.518Z,21.00
2018-07-12T16:35:32.781Z,20.90
2018-07-12T16:38:01.015Z,20.90
2018-07-12T16:40:29.230Z,20.90
2018-07-12T16:42:57.471Z,20.80
2018-07-12T16:45:26.921Z,20.70
2018-07-12T16:47:55.146Z,20.80
2018-07-12T16:50:23.410Z,20.80
2018-07-12T16:52:51.973Z,20.80
2018-07-12T16:55:20.193Z,20.80
2018-07-12T16:57:48.440Z,20.80
2018-07-12T17:00:18.987Z,20.80
2018-07-12T17:02:47.858Z,20.80
2018-07-12T17:05:16.193Z,20.80
2018-07-12T17:07:44.587Z,20.80
2018-07-12T17:10:12.831Z,20.60
2018-07-12T17:12:41.209Z,20.60
2018-07-12T17:15:09.524Z,20.60
2018-07-12T17:17:37.727Z,20.50
2018-07-12T17:20:05.916Z,20.50
2018-07-12T17:22:34.228Z,20.50
2018-07-12T17:27:30.465Z,20.40
2018-07-12T17:29:58.768Z,20.40
2018-07-12T17:32:27.032Z,20.30
2018-07-12T17:34:55.245Z,20.20
2018-07-12T17:37:23.417Z,20.20
2018-07-12T17:39:51.693Z,20.30
2018-07-12T17:42:20.028Z,20.30
2018-07-12T17:44:48.355Z,20.30
2018-07-12T17:47:16.700Z,20.30
2018-07-12T17:49:45.058Z,20.30
2018-07-12T17:54:41.727Z,20.30
2018-07-12T17:57:10.098Z,20.30
2018-07-12T17:59:38.333Z,20.30
2018-07-12T18:02:06.549Z,20.30
2018-07-12T18:04:35.015Z,20.20
2018-07-12T18:07:03.235Z,20.20
2018-07-12T18:09:31.473Z,20.10
2018-07-12T18:11:59.846Z,20.10
2018-07-12T18:14:28.355Z,20.10
2018-07-12T18:16:56.641Z,20.10
2018-07-12T18:19:25.239Z,20.10
2018-07-12T18:21:53.640Z,20.10
2018-07-12T18:24:21.925Z,20.10
2018-07-12T18:26:50.542Z,20.00
2018-07-12T18:29:18.789Z,19.90
2018-07-12T18:31:47.057Z,19.80
2018-07-12T18:34:16.291Z,19.70
2018-07-12T18:36:44.580Z,19.70
2018-07-12T18:39:12.785Z,19.70
2018-07-12T18:41:40.995Z,19.60
2018-07-12T18:44:09.185Z,19.60
2018-07-12T18:46:37.472Z,19.50
2018-07-12T18:49:05.731Z,19.50
2018-07-12T18:51:33.955Z,19.40
2018-07-12T18:54:02.191Z,19.40
2018-07-12T18:56:30.449Z,19.40
2018-07-12T18:58:58.745Z,19.40
2018-07-12T19:01:26.990Z,19.30
2018-07-12T19:03:55.229Z,19.30
2018-07-12T19:06:23.980Z,19.30
2018-07-12T19:08:52.284Z,19.20
2018-07-12T19:11:20.504Z,19.20
2018-07-12T19:13:48.735Z,19.20
2018-07-12T19:16:17.378Z,19.20
2018-07-12T19:18:45.812Z,19.10
2018-07-12T19:23:42.205Z,19.00
2018-07-12T19:26:10.685Z,18.90
2018-07-12T19:28:38.964Z,18.90
2018-07-12T19:31:07.169Z,18.90
2018-07-12T19:33:35.453Z,18.90
2018-07-12T19:36:04.023Z,19.00
2018-07-12T19:38:32.306Z,18.90
2018-07-12T19:41:00.858Z,18.90
2018-07-12T19:43:29.432Z,18.90
2018-07-12T19:52:42.713Z,18.70
2018-07-12T19:55:10.967Z,18.40
2018-07-12T19:57:39.245Z,18.40
2018-07-12T20:00:07.772Z,18.40
2018-07-12T20:02:36.009Z,18.40
2018-07-12T20:05:05.313Z,18.30
2018-07-12T20:07:33.845Z,18.20
2018-07-12T20:10:02.081Z,18.30
2018-07-12T20:12:30.485Z,18.30
2018-07-12T20:14:58.859Z,18.20
2018-07-12T20:17:27.108Z,18.10
2018-07-12T20:19:55.325Z,18.00
2018-07-12T20:22:23.585Z,18.00
2018-07-12T20:24:52.909Z,17.90
2018-07-12T20:27:21.138Z,17.80
2018-07-12T20:29:49.359Z,17.80
2018-07-12T20:32:17.568Z,17.70
2018-07-12T20:34:45.986Z,17.60
2018-07-12T20:37:14.173Z,17.60
2018-07-12T20:39:42.393Z,17.60
2018-07-12T20:42:10.615Z,17.50
2018-07-12T20:44:38.855Z,17.50
2018-07-12T20:47:07.143Z,17.50
2018-07-12T20:49:35.480Z,17.60
2018-07-12T20:52:03.741Z,17.60
2018-07-12T20:54:32.126Z,17.50
2018-07-12T20:57:00.422Z,17.50
2018-07-12T20:59:28.712Z,17.50
2018-07-12T21:01:57.117Z,17.50
2018-07-12T21:04:25.567Z,17.50
2018-07-12T21:06:53.804Z,17.40
2018-07-12T21:09:22.082Z,17.30
2018-07-12T21:11:50.427Z,17.40
2018-07-12T21:14:18.849Z,17.30
2018-07-12T21:16:47.118Z,17.20
2018-07-12T21:19:15.360Z,17.20
2018-07-12T21:21:43.556Z,17.30
2018-07-12T21:24:11.957Z,17.20
2018-07-12T21:26:40.253Z,17.20
2018-07-12T21:29:08.446Z,17.10
2018-07-12T21:31:36.672Z,17.10
2018-07-12T21:34:05.161Z,17.00
2018-07-12T21:36:33.376Z,17.00
2018-07-12T21:39:01.688Z,17.00
2018-07-12T21:43:57.920Z,17.10
2018-07-12T21:46:26.208Z,17.10
2018-07-12T21:48:54.419Z,17.10
2018-07-12T21:51:22.686Z,17.10
2018-07-12T21:53:50.949Z,17.00
2018-07-12T21:56:19.305Z,17.00
2018-07-12T21:58:47.577Z,17.00
2018-07-12T22:01:15.824Z,17.10
2018-07-12T22:03:44.030Z,17.10
2018-07-12T22:06:12.345Z,17.10
2018-07-12T22:08:40.541Z,17.10
2018-07-12T22:11:08.828Z,17.10
2018-07-12T22:13:37.883Z,17.20
2018-07-12T22:16:06.316Z,17.10
2018-07-12T22:18:34.749Z,17.10
2018-07-12T22:21:02.990Z,17.10
2018-07-12T22:23:31.214Z,17.10
2018-07-12T22:25:59.578Z,17.10
2018-07-12T22:28:27.854Z,17.10
2018-07-12T22:30:56.081Z,17.10
2018-07-12T22:35:52.460Z,17.10
2018-07-12T22:38:20.664Z,17.10
2018-07-12T22:40:48.881Z,17.00
2018-07-12T22:43:17.114Z,17.00
2018-07-12T22:45:45.374Z,17.00
2018-07-12T22:48:13.641Z,17.00
2018-07-12T22:50:41.727Z,17.00
2018-07-12T22:53:09.961Z,17.00
2018-07-12T22:55:38.254Z,17.00
2018-07-12T22:58:12.920Z,16.90
2018-07-12T23:00:41.101Z,16.90
2018-07-12T23:03:09.372Z,16.90
2018-07-12T23:05:37.705Z,16.90
2018-07-12T23:08:05.923Z,16.90
2018-07-12T23:10:34.108Z,16.90
2018-07-12T23:13:02.296Z,16.80
2018-07-12T23:17:59.354Z,16.90
2018-07-12T23:20:27.535Z,17.00
2018-07-12T23:22:55.747Z,16.90
2018-07-12T23:25:24.189Z,16.90
2018-07-12T23:27:52.458Z,16.90
2018-07-12T23:30:20.707Z,16.90
2018-07-12T23:32:48.898Z,17.00
2018-07-12T23:37:45.358Z,16.90
2018-07-12T23:40:13.631Z,16.90
2018-07-12T23:42:41.860Z,16.80
2018-07-12T23:45:10.177Z,16.70
2018-07-12T23:47:38.357Z,16.70
2018-07-12T23:50:06.633Z,16.70
2018-07-12T23:52:34.818Z,16.70
2018-07-12T23:55:03.272Z,16.60
2018-07-12T23:57:31.484Z,16.60
2018-07-12T23:59:59.774Z,16.60
